sensor_id;sensor_type;location;lat;lon;timestamp;P1;durP1;ratioP1;P2;durP2;ratioP2
20122;SDS011;10222;50.848;4.336;2023-04-06T00:01:52;9.13;;;4.77;;
20122;SDS011;10222;50.848;4.336;2023-04-06T00:04:20;11.57;;;5.73;;
20122;SDS011;10222;50.848;4.336;2023-04-06T00:06:49;14.00;;;6.13;;
20122;SDS011;10222;50.848;4.336;2023-04-06T00:09:18;14.03;;;5.90;;
20122;SDS011;10222;50.848;4.336;2023-04-06T00:11:48;15.13;;;6.07;;
20122;SDS011;10222;50.848;4.336;2023-04-06T00:14:18;11.93;;;5.27;;
20122;SDS011;10222;50.848;4.336;2023-04-06T00:16:47;13.07;;;6.03;;
20122;SDS011;10222;50.848;4.336;2023-04-06T00:19:14;10.80;;;5.90;;
20122;SDS011;10222;50.848;4.336;2023-04-06T00:21:41;11.33;;;5.47;;
20122;SDS011;10222;50.848;4.336;2023-04-06T00:26:37;12.33;;;5.37;;
20122;SDS011;10222;50.848;4.336;2023-04-06T00:31:35;12.53;;;5.70;;
20122;SDS011;10222;50.848;4.336;2023-04-06T00:39:00;11.77;;;5.50;;
20122;SDS011;10222;50.848;4.336;2023-04-06T00:41:29;11.17;;;5.83;;
20122;SDS011;10222;50.848;4.336;2023-04-06T00:43:56;13.53;;;6.53;;
20122;SDS011;10222;50.848;4.336;2023-04-06T00:46:22;14.33;;;6.40;;
20122;SDS011;10222;50.848;4.336;2023-04-06T00:48:48;14.00;;;5.73;;
20122;SDS011;10222;50.848;4.336;2023-04-06T00:51:20;12.27;;;6.47;;
20122;SDS011;10222;50.848;4.336;2023-04-06T00:53:49;12.67;;;5.60;;
20122;SDS011;10222;50.848;4.336;2023-04-06T00:56:18;11.53;;;5.47;;
20122;SDS011;10222;50.848;4.336;2023-04-06T00:58:46;12.53;;;5.97;;
20122;SDS011;10222;50.848;4.336;2023-04-06T01:01:14;14.67;;;6.70;;
20122;SDS011;10222;50.848;4.336;2023-04-06T01:03:43;10.93;;;5.90;;
20122;SDS011;10222;50.848;4.336;2023-04-06T01:06:15;9.97;;;5.10;;
20122;SDS011;10222;50.848;4.336;2023-04-06T01:08:47;10.43;;;5.33;;
20122;SDS011;10222;50.848;4.336;2023-04-06T01:11:16;13.23;;;5.77;;
20122;SDS011;10222;50.848;4.336;2023-04-06T01:13:46;10.83;;;5.63;;
20122;SDS011;10222;50.848;4.336;2023-04-06T01:16:14;11.90;;;5.70;;
20122;SDS011;10222;50.848;4.336;2023-04-06T01:18:40;11.70;;;5.87;;
20122;SDS011;10222;50.848;4.336;2023-04-06T01:23:46;11.93;;;5.40;;
20122;SDS011;10222;50.848;4.336;2023-04-06T01:26:15;11.37;;;6.30;;
20122;SDS011;10222;50.848;4.336;2023-04-06T01:31:13;12.03;;;5.73;;
20122;SDS011;10222;50.848;4.336;2023-04-06T01:33:46;13.27;;;6.33;;
20122;SDS011;10222;50.848;4.336;2023-04-06T01:36:13;12.50;;;5.67;;
20122;SDS011;10222;50.848;4.336;2023-04-06T01:41:09;11.20;;;5.73;;
20122;SDS011;10222;50.848;4.336;2023-04-06T01:46:08;13.53;;;5.40;;
20122;SDS011;10222;50.848;4.336;2023-04-06T01:48:38;13.00;;;6.20;;
20122;SDS011;10222;50.848;4.336;2023-04-06T01:51:07;15.67;;;6.63;;
20122;SDS011;10222;50.848;4.336;2023-04-06T01:53:36;12.00;;;5.97;;
20122;SDS011;10222;50.848;4.336;2023-04-06T01:58:31;9.53;;;5.20;;
20122;SDS011;10222;50.848;4.336;2023-04-06T02:08:26;9.77;;;4.90;;
20122;SDS011;10222;50.848;4.336;2023-04-06T02:13:24;13.07;;;5.77;;
20122;SDS011;10222;50.848;4.336;2023-04-06T02:15:52;13.53;;;6.43;;
20122;SDS011;10222;50.848;4.336;2023-04-06T02:20:47;10.57;;;5.73;;
20122;SDS011;10222;50.848;4.336;2023-04-06T02:23:18;12.47;;;5.70;;
20122;SDS011;10222;50.848;4.336;2023-04-06T02:25:50;15.17;;;6.20;;
20122;SDS011;10222;50.848;4.336;2023-04-06T02:28:19;11.27;;;5.63;;
20122;SDS011;10222;50.848;4.336;2023-04-06T02:30:48;12.43;;;5.43;;
20122;SDS011;10222;50.848;4.336;2023-04-06T02:33:16;12.47;;;6.17;;
20122;SDS011;10222;50.848;4.336;2023-04-06T02:35:46;11.57;;;6.40;;
20122;SDS011;10222;50.848;4.336;2023-04-06T02:38:15;11.03;;;5.83;;
20122;SDS011;10222;50.848;4.336;2023-04-06T02:40:44;11.27;;;5.93;;
20122;SDS011;10222;50.848;4.336;2023-04-06T02:45:44;11.37;;;5.60;;
20122;SDS011;10222;50.848;4.336;2023-04-06T02:48:10;9.57;;;5.43;;
20122;SDS011;10222;50.848;4.336;2023-04-06T02:50:36;11.07;;;5.67;;
20122;SDS011;10222;50.848;4.336;2023-04-06T02:53:05;12.50;;;6.03;;
20122;SDS011;10222;50.848;4.336;2023-04-06T02:55:35;12.27;;;6.13;;
20122;SDS011;10222;50.848;4.336;2023-04-06T02:58:07;12.43;;;5.83;;
20122;SDS011;10222;50.848;4.336;2023-04-06T03:03:11;14.10;;;6.07;;
20122;SDS011;10222;50.848;4.336;2023-04-06T03:08:07;11.53;;;5.70;;
20122;SDS011;10222;50.848;4.336;2023-04-06T03:10:33;11.00;;;6.27;;
20122;SDS011;10222;50.848;4.336;2023-04-06T03:12:59;11.97;;;6.33;;
20122;SDS011;10222;50.848;4.336;2023-04-06T03:15:29;12.80;;;6.43;;
20122;SDS011;10222;50.848;4.336;2023-04-06T03:17:58;10.37;;;5.77;;
20122;SDS011;10222;50.848;4.336;2023-04-06T03:20:25;16.27;;;5.77;;
20122;SDS011;10222;50.848;4.336;2023-04-06T03:22:52;13.73;;;5.53;;
20122;SDS011;10222;50.848;4.336;2023-04-06T03:25:19;13.33;;;5.87;;
20122;SDS011;10222;50.848;4.336;2023-04-06T03:30:15;9.57;;;5.23;;
20122;SDS011;10222;50.848;4.336;2023-04-06T03:32:44;9.90;;;5.53;;
20122;SDS011;10222;50.848;4.336;2023-04-06T03:35:11;9.80;;;5.57;;
20122;SDS011;10222;50.848;4.336;2023-04-06T03:40:07;8.33;;;5.10;;
20122;SDS011;10222;50.848;4.336;2023-04-06T03:42:34;12.53;;;6.50;;
20122;SDS011;10222;50.848;4.336;2023-04-06T03:45:02;12.17;;;5.77;;
20122;SDS011;10222;50.848;4.336;2023-04-06T03:47:28;12.70;;;5.80;;
20122;SDS011;10222;50.848;4.336;2023-04-06T03:49:54;11.57;;;5.93;;
20122;SDS011;10222;50.848;4.336;2023-04-06T03:52:21;10.87;;;6.07;;
20122;SDS011;10222;50.848;4.336;2023-04-06T03:54:52;14.27;;;6.53;;
20122;SDS011;10222;50.848;4.336;2023-04-06T03:57:20;11.10;;;5.73;;
20122;SDS011;10222;50.848;4.336;2023-04-06T04:02:18;13.13;;;5.87;;
20122;SDS011;10222;50.848;4.336;2023-04-06T04:04:44;13.67;;;5.53;;
20122;SDS011;10222;50.848;4.336;2023-04-06T04:07:10;12.20;;;6.17;;
20122;SDS011;10222;50.848;4.336;2023-04-06T04:12:08;15.20;;;7.27;;
20122;SDS011;10222;50.848;4.336;2023-04-06T04:17:03;12.40;;;6.03;;
20122;SDS011;10222;50.848;4.336;2023-04-06T04:22:00;12.53;;;5.83;;
20122;SDS011;10222;50.848;4.336;2023-04-06T04:24:29;11.20;;;5.63;;
20122;SDS011;10222;50.848;4.336;2023-04-06T04:26:59;14.07;;;6.47;;
20122;SDS011;10222;50.848;4.336;2023-04-06T04:29:30;11.50;;;5.93;;
20122;SDS011;10222;50.848;4.336;2023-04-06T04:31:58;13.17;;;5.83;;
20122;SDS011;10222;50.848;4.336;2023-04-06T04:36:56;10.33;;;5.63;;
20122;SDS011;10222;50.848;4.336;2023-04-06T04:41:52;12.37;;;5.90;;
20122;SDS011;10222;50.848;4.336;2023-04-06T04:44:18;10.60;;;6.03;;
20122;SDS011;10222;50.848;4.336;2023-04-06T04:46:48;12.63;;;6.03;;
20122;SDS011;10222;50.848;4.336;2023-04-06T04:51:46;10.80;;;5.57;;
20122;SDS011;10222;50.848;4.336;2023-04-06T04:54:13;14.17;;;6.73;;
20122;SDS011;10222;50.848;4.336;2023-04-06T04:56:42;13.57;;;6.37;;
20122;SDS011;10222;50.848;4.336;2023-04-06T04:59:09;13.20;;;6.37;;
20122;SDS011;10222;50.848;4.336;2023-04-06T05:06:34;14.50;;;6.83;;
20122;SDS011;10222;50.848;4.336;2023-04-06T05:11:31;11.50;;;5.97;;
20122;SDS011;10222;50.848;4.336;2023-04-06T05:13:57;11.10;;;6.10;;
20122;SDS011;10222;50.848;4.336;2023-04-06T05:16:26;14.43;;;7.07;;
20122;SDS011;10222;50.848;4.336;2023-04-06T05:18:54;14.47;;;6.47;;
20122;SDS011;10222;50.848;4.336;2023-04-06T05:21:22;12.97;;;6.37;;
20122;SDS011;10222;50.848;4.336;2023-04-06T05:23:50;11.53;;;6.43;;
20122;SDS011;10222;50.848;4.336;2023-04-06T05:26:22;19.13;;;7.70;;
20122;SDS011;10222;50.848;4.336;2023-04-06T05:28:50;21.53;;;7.40;;
20122;SDS011;10222;50.848;4.336;2023-04-06T05:31:17;12.50;;;6.53;;
20122;SDS011;10222;50.848;4.336;2023-04-06T05:33:46;11.87;;;6.60;;
20122;SDS011;10222;50.848;4.336;2023-04-06T05:36:13;11.87;;;6.43;;
20122;SDS011;10222;50.848;4.336;2023-04-06T05:38:43;12.63;;;6.83;;
20122;SDS011;10222;50.848;4.336;2023-04-06T05:41:09;14.40;;;6.10;;
20122;SDS011;10222;50.848;4.336;2023-04-06T05:43:35;12.60;;;6.53;;
20122;SDS011;10222;50.848;4.336;2023-04-06T05:56:24;14.83;;;6.43;;
20122;SDS011;10222;50.848;4.336;2023-04-06T05:58:51;15.60;;;7.50;;
20122;SDS011;10222;50.848;4.336;2023-04-06T06:09:04;15.63;;;7.60;;
20122;SDS011;10222;50.848;4.336;2023-04-06T06:11:30;13.37;;;7.13;;
20122;SDS011;10222;50.848;4.336;2023-04-06T06:14:01;16.83;;;8.07;;
20122;SDS011;10222;50.848;4.336;2023-04-06T06:18:56;13.63;;;7.47;;
20122;SDS011;10222;50.848;4.336;2023-04-06T06:21:25;16.37;;;7.37;;
20122;SDS011;10222;50.848;4.336;2023-04-06T06:23:54;15.87;;;8.17;;
20122;SDS011;10222;50.848;4.336;2023-04-06T06:26:20;16.40;;;8.13;;
20122;SDS011;10222;50.848;4.336;2023-04-06T06:28:47;13.87;;;7.37;;
20122;SDS011;10222;50.848;4.336;2023-04-06T06:31:17;14.43;;;7.57;;
20122;SDS011;10222;50.848;4.336;2023-04-06T06:33:48;17.03;;;8.77;;
20122;SDS011;10222;50.848;4.336;2023-04-06T06:38:48;13.43;;;7.37;;
20122;SDS011;10222;50.848;4.336;2023-04-06T06:41:15;12.20;;;7.27;;
20122;SDS011;10222;50.848;4.336;2023-04-06T06:48:40;15.00;;;7.70;;
20122;SDS011;10222;50.848;4.336;2023-04-06T06:51:07;13.33;;;7.27;;
20122;SDS011;10222;50.848;4.336;2023-04-06T06:53:34;15.17;;;7.73;;
20122;SDS011;10222;50.848;4.336;2023-04-06T06:56:07;16.57;;;7.23;;
20122;SDS011;10222;50.848;4.336;2023-04-06T07:01:02;14.50;;;7.37;;
20122;SDS011;10222;50.848;4.336;2023-04-06T07:03:30;15.70;;;7.33;;
20122;SDS011;10222;50.848;4.336;2023-04-06T07:05:58;15.63;;;7.80;;
20122;SDS011;10222;50.848;4.336;2023-04-06T07:08:24;18.60;;;7.70;;
20122;SDS011;10222;50.848;4.336;2023-04-06T07:10:51;17.07;;;6.80;;
20122;SDS011;10222;50.848;4.336;2023-04-06T07:13:18;14.07;;;6.87;;
20122;SDS011;10222;50.848;4.336;2023-04-06T07:15:47;15.57;;;7.53;;
20122;SDS011;10222;50.848;4.336;2023-04-06T07:18:13;13.43;;;6.87;;
20122;SDS011;10222;50.848;4.336;2023-04-06T07:20:40;15.03;;;7.10;;
20122;SDS011;10222;50.848;4.336;2023-04-06T07:23:06;17.03;;;7.50;;
20122;SDS011;10222;50.848;4.336;2023-04-06T07:25:32;12.83;;;6.17;;
20122;SDS011;10222;50.848;4.336;2023-04-06T07:28:01;13.40;;;6.67;;
20122;SDS011;10222;50.848;4.336;2023-04-06T07:30:29;12.37;;;6.37;;
20122;SDS011;10222;50.848;4.336;2023-04-06T07:32:56;13.63;;;5.70;;
20122;SDS011;10222;50.848;4.336;2023-04-06T07:35:26;11.27;;;5.27;;
20122;SDS011;10222;50.848;4.336;2023-04-06T07:37:55;9.07;;;4.83;;
20122;SDS011;10222;50.848;4.336;2023-04-06T07:40:22;12.27;;;5.80;;
20122;SDS011;10222;50.848;4.336;2023-04-06T07:42:51;11.03;;;5.67;;
20122;SDS011;10222;50.848;4.336;2023-04-06T07:45:23;9.30;;;4.70;;
20122;SDS011;10222;50.848;4.336;2023-04-06T07:47:51;13.43;;;5.87;;
20122;SDS011;10222;50.848;4.336;2023-04-06T07:50:20;8.53;;;4.83;;
20122;SDS011;10222;50.848;4.336;2023-04-06T07:52:46;12.27;;;5.30;;
20122;SDS011;10222;50.848;4.336;2023-04-06T07:57:41;8.33;;;4.60;;
20122;SDS011;10222;50.848;4.336;2023-04-06T08:00:13;11.83;;;4.60;;
20122;SDS011;10222;50.848;4.336;2023-04-06T08:02:42;9.90;;;4.83;;
20122;SDS011;10222;50.848;4.336;2023-04-06T08:05:14;10.77;;;4.60;;
20122;SDS011;10222;50.848;4.336;2023-04-06T08:10:15;11.70;;;5.07;;
20122;SDS011;10222;50.848;4.336;2023-04-06T08:12:41;11.23;;;3.50;;
20122;SDS011;10222;50.848;4.336;2023-04-06T08:15:07;7.50;;;4.17;;
20122;SDS011;10222;50.848;4.336;2023-04-06T08:17:39;11.67;;;4.23;;
20122;SDS011;10222;50.848;4.336;2023-04-06T08:20:05;7.40;;;4.00;;
20122;SDS011;10222;50.848;4.336;2023-04-06T08:22:33;6.30;;;3.97;;
20122;SDS011;10222;50.848;4.336;2023-04-06T08:24:59;5.87;;;3.87;;
20122;SDS011;10222;50.848;4.336;2023-04-06T08:29:55;7.63;;;4.00;;
20122;SDS011;10222;50.848;4.336;2023-04-06T08:32:27;10.07;;;4.33;;
20122;SDS011;10222;50.848;4.336;2023-04-06T08:34:53;7.93;;;4.37;;
20122;SDS011;10222;50.848;4.336;2023-04-06T08:39:49;6.20;;;3.67;;
20122;SDS011;10222;50.848;4.336;2023-04-06T08:42:25;7.13;;;3.70;;
20122;SDS011;10222;50.848;4.336;2023-04-06T08:44:53;8.07;;;4.23;;
20122;SDS011;10222;50.848;4.336;2023-04-06T08:47:23;9.40;;;4.20;;
20122;SDS011;10222;50.848;4.336;2023-04-06T08:49:53;7.83;;;3.80;;
20122;SDS011;10222;50.848;4.336;2023-04-06T08:52:22;10.00;;;4.43;;
20122;SDS011;10222;50.848;4.336;2023-04-06T08:54:50;9.67;;;4.30;;
20122;SDS011;10222;50.848;4.336;2023-04-06T08:57:17;8.00;;;3.20;;
20122;SDS011;10222;50.848;4.336;2023-04-06T08:59:45;7.13;;;3.80;;
20122;SDS011;10222;50.848;4.336;2023-04-06T09:02:13;7.87;;;4.90;;
20122;SDS011;10222;50.848;4.336;2023-04-06T09:04:43;9.70;;;4.47;;
20122;SDS011;10222;50.848;4.336;2023-04-06T09:07:10;6.97;;;3.70;;
20122;SDS011;10222;50.848;4.336;2023-04-06T09:09:36;13.07;;;4.77;;
20122;SDS011;10222;50.848;4.336;2023-04-06T09:12:02;11.10;;;5.23;;
20122;SDS011;10222;50.848;4.336;2023-04-06T09:14:34;8.67;;;4.70;;
20122;SDS011;10222;50.848;4.336;2023-04-06T09:17:07;8.53;;;4.73;;
20122;SDS011;10222;50.848;4.336;2023-04-06T09:19:33;8.20;;;4.27;;
20122;SDS011;10222;50.848;4.336;2023-04-06T09:22:03;9.53;;;4.27;;
20122;SDS011;10222;50.848;4.336;2023-04-06T09:24:38;7.83;;;4.17;;
20122;SDS011;10222;50.848;4.336;2023-04-06T09:27:11;11.80;;;4.93;;
20122;SDS011;10222;50.848;4.336;2023-04-06T09:32:07;7.73;;;3.87;;
20122;SDS011;10222;50.848;4.336;2023-04-06T09:34:41;7.43;;;4.03;;
20122;SDS011;10222;50.848;4.336;2023-04-06T09:37:17;7.93;;;3.90;;
20122;SDS011;10222;50.848;4.336;2023-04-06T09:39:44;7.57;;;3.60;;
20122;SDS011;10222;50.848;4.336;2023-04-06T09:42:23;9.93;;;4.83;;
20122;SDS011;10222;50.848;4.336;2023-04-06T09:44:50;8.53;;;4.73;;
20122;SDS011;10222;50.848;4.336;2023-04-06T09:47:16;8.87;;;4.47;;
20122;SDS011;10222;50.848;4.336;2023-04-06T09:49:44;9.43;;;4.77;;
20122;SDS011;10222;50.848;4.336;2023-04-06T09:52:10;7.90;;;4.40;;
20122;SDS011;10222;50.848;4.336;2023-04-06T09:54:39;8.17;;;4.00;;
20122;SDS011;10222;50.848;4.336;2023-04-06T09:57:24;8.10;;;4.20;;
20122;SDS011;10222;50.848;4.336;2023-04-06T10:12:48;5.10;;;3.20;;
20122;SDS011;10222;50.848;4.336;2023-04-06T10:15:16;7.03;;;3.60;;
20122;SDS011;10222;50.848;4.336;2023-04-06T10:17:45;6.10;;;3.53;;
20122;SDS011;10222;50.848;4.336;2023-04-06T10:22:42;8.03;;;4.07;;
20122;SDS011;10222;50.848;4.336;2023-04-06T10:25:09;8.90;;;4.40;;
20122;SDS011;10222;50.848;4.336;2023-04-06T10:27:37;8.53;;;4.63;;
20122;SDS011;10222;50.848;4.336;2023-04-06T10:30:09;9.37;;;4.27;;
20122;SDS011;10222;50.848;4.336;2023-04-06T10:32:38;9.93;;;4.00;;
20122;SDS011;10222;50.848;4.336;2023-04-06T10:40:23;9.33;;;4.23;;
20122;SDS011;10222;50.848;4.336;2023-04-06T10:42:52;6.13;;;3.77;;
20122;SDS011;10222;50.848;4.336;2023-04-06T10:47:49;8.33;;;4.37;;
20122;SDS011;10222;50.848;4.336;2023-04-06T10:50:18;8.80;;;4.47;;
20122;SDS011;10222;50.848;4.336;2023-04-06T10:52:45;8.00;;;3.90;;
20122;SDS011;10222;50.848;4.336;2023-04-06T10:55:12;9.70;;;5.23;;
20122;SDS011;10222;50.848;4.336;2023-04-06T10:57:40;11.60;;;5.30;;
20122;SDS011;10222;50.848;4.336;2023-04-06T11:02:37;12.37;;;4.50;;
20122;SDS011;10222;50.848;4.336;2023-04-06T11:05:05;7.17;;;4.20;;
20122;SDS011;10222;50.848;4.336;2023-04-06T11:07:34;7.93;;;4.57;;
20122;SDS011;10222;50.848;4.336;2023-04-06T11:10:03;9.50;;;4.93;;
20122;SDS011;10222;50.848;4.336;2023-04-06T11:12:33;9.93;;;4.60;;
20122;SDS011;10222;50.848;4.336;2023-04-06T11:15:00;8.07;;;4.37;;
20122;SDS011;10222;50.848;4.336;2023-04-06T11:17:35;8.93;;;4.33;;
20122;SDS011;10222;50.848;4.336;2023-04-06T11:22:32;6.73;;;3.90;;
20122;SDS011;10222;50.848;4.336;2023-04-06T11:25:05;9.53;;;4.90;;
20122;SDS011;10222;50.848;4.336;2023-04-06T11:27:32;8.20;;;5.00;;
20122;SDS011;10222;50.848;4.336;2023-04-06T11:30:01;7.83;;;4.57;;
20122;SDS011;10222;50.848;4.336;2023-04-06T11:32:38;8.83;;;4.57;;
20122;SDS011;10222;50.848;4.336;2023-04-06T11:35:18;8.10;;;4.77;;
20122;SDS011;10222;50.848;4.336;2023-04-06T11:40:20;12.03;;;4.83;;
20122;SDS011;10222;50.848;4.336;2023-04-06T11:42:55;9.13;;;4.40;;
20122;SDS011;10222;50.848;4.336;2023-04-06T11:45:23;8.13;;;4.63;;
20122;SDS011;10222;50.848;4.336;2023-04-06T11:48:01;9.90;;;4.70;;
20122;SDS011;10222;50.848;4.336;2023-04-06T11:50:33;8.80;;;4.47;;
20122;SDS011;10222;50.848;4.336;2023-04-06T11:53:01;7.87;;;4.23;;
20122;SDS011;10222;50.848;4.336;2023-04-06T11:55:37;7.53;;;4.50;;
20122;SDS011;10222;50.848;4.336;2023-04-06T11:58:04;13.07;;;5.17;;
20122;SDS011;10222;50.848;4.336;2023-04-06T12:00:34;12.40;;;5.10;;
20122;SDS011;10222;50.848;4.336;2023-04-06T12:03:05;7.73;;;4.40;;
20122;SDS011;10222;50.848;4.336;2023-04-06T12:05:32;8.20;;;4.73;;
20122;SDS011;10222;50.848;4.336;2023-04-06T12:08:01;10.87;;;5.00;;
20122;SDS011;10222;50.848;4.336;2023-04-06T12:10:28;7.27;;;4.47;;
20122;SDS011;10222;50.848;4.336;2023-04-06T12:12:55;9.30;;;4.40;;
20122;SDS011;10222;50.848;4.336;2023-04-06T12:15:24;9.20;;;4.97;;
20122;SDS011;10222;50.848;4.336;2023-04-06T12:17:52;7.93;;;4.53;;
20122;SDS011;10222;50.848;4.336;2023-04-06T12:20:19;7.13;;;4.50;;
20122;SDS011;10222;50.848;4.336;2023-04-06T12:22:46;10.57;;;5.23;;
20122;SDS011;10222;50.848;4.336;2023-04-06T12:25:12;9.53;;;4.43;;
20122;SDS011;10222;50.848;4.336;2023-04-06T12:27:39;12.27;;;5.00;;
20122;SDS011;10222;50.848;4.336;2023-04-06T12:30:07;9.37;;;4.50;;
20122;SDS011;10222;50.848;4.336;2023-04-06T12:32:36;7.17;;;3.97;;
20122;SDS011;10222;50.848;4.336;2023-04-06T12:37:35;7.03;;;4.47;;
20122;SDS011;10222;50.848;4.336;2023-04-06T12:42:31;9.70;;;4.30;;
20122;SDS011;10222;50.848;4.336;2023-04-06T12:44:58;10.53;;;5.37;;
20122;SDS011;10222;50.848;4.336;2023-04-06T12:47:27;8.47;;;4.37;;
20122;SDS011;10222;50.848;4.336;2023-04-06T12:49:53;8.47;;;5.20;;
20122;SDS011;10222;50.848;4.336;2023-04-06T12:52:20;8.70;;;4.60;;
20122;SDS011;10222;50.848;4.336;2023-04-06T12:54:48;7.43;;;4.80;;
20122;SDS011;10222;50.848;4.336;2023-04-06T12:57:16;7.30;;;4.70;;
20122;SDS011;10222;50.848;4.336;2023-04-06T12:59:44;10.60;;;5.73;;
20122;SDS011;10222;50.848;4.336;2023-04-06T13:02:11;8.13;;;4.73;;
20122;SDS011;10222;50.848;4.336;2023-04-06T13:04:45;8.87;;;4.53;;
20122;SDS011;10222;50.848;4.336;2023-04-06T13:07:13;7.07;;;4.67;;
20122;SDS011;10222;50.848;4.336;2023-04-06T13:09:42;8.07;;;4.33;;
20122;SDS011;10222;50.848;4.336;2023-04-06T13:12:10;9.33;;;5.70;;
20122;SDS011;10222;50.848;4.336;2023-04-06T13:14:39;10.37;;;4.97;;
20122;SDS011;10222;50.848;4.336;2023-04-06T13:17:06;8.33;;;5.07;;
20122;SDS011;10222;50.848;4.336;2023-04-06T13:19:35;8.53;;;4.83;;
20122;SDS011;10222;50.848;4.336;2023-04-06T13:22:02;12.40;;;5.10;;
20122;SDS011;10222;50.848;4.336;2023-04-06T13:24:29;8.50;;;5.07;;
20122;SDS011;10222;50.848;4.336;2023-04-06T13:27:01;8.67;;;5.13;;
20122;SDS011;10222;50.848;4.336;2023-04-06T13:29:29;8.47;;;4.67;;
20122;SDS011;10222;50.848;4.336;2023-04-06T13:31:57;10.10;;;5.07;;
20122;SDS011;10222;50.848;4.336;2023-04-06T13:34:25;9.47;;;5.50;;
20122;SDS011;10222;50.848;4.336;2023-04-06T13:36:52;11.87;;;4.80;;
20122;SDS011;10222;50.848;4.336;2023-04-06T13:39:20;9.60;;;5.47;;
20122;SDS011;10222;50.848;4.336;2023-04-06T13:41:55;8.77;;;5.20;;
20122;SDS011;10222;50.848;4.336;2023-04-06T13:44:23;10.77;;;5.20;;
20122;SDS011;10222;50.848;4.336;2023-04-06T13:46:50;9.00;;;5.33;;
20122;SDS011;10222;50.848;4.336;2023-04-06T13:49:17;10.63;;;5.60;;
20122;SDS011;10222;50.848;4.336;2023-04-06T13:51:47;11.17;;;5.63;;
20122;SDS011;10222;50.848;4.336;2023-04-06T13:56:45;10.20;;;5.10;;
20122;SDS011;10222;50.848;4.336;2023-04-06T13:59:13;8.23;;;4.67;;
20122;SDS011;10222;50.848;4.336;2023-04-06T14:04:08;11.33;;;5.27;;
20122;SDS011;10222;50.848;4.336;2023-04-06T14:06:36;9.60;;;5.43;;
20122;SDS011;10222;50.848;4.336;2023-04-06T14:09:03;10.43;;;5.50;;
20122;SDS011;10222;50.848;4.336;2023-04-06T14:11:30;9.30;;;5.27;;
20122;SDS011;10222;50.848;4.336;2023-04-06T14:13:57;8.47;;;5.47;;
20122;SDS011;10222;50.848;4.336;2023-04-06T14:16:23;9.83;;;6.03;;
20122;SDS011;10222;50.848;4.336;2023-04-06T14:18:50;10.53;;;5.90;;
20122;SDS011;10222;50.848;4.336;2023-04-06T14:21:17;9.20;;;5.00;;
20122;SDS011;10222;50.848;4.336;2023-04-06T14:23:44;8.53;;;4.90;;
20122;SDS011;10222;50.848;4.336;2023-04-06T14:26:11;6.43;;;4.57;;
20122;SDS011;10222;50.848;4.336;2023-04-06T14:28:38;9.67;;;5.17;;
20122;SDS011;10222;50.848;4.336;2023-04-06T14:31:12;9.30;;;5.47;;
20122;SDS011;10222;50.848;4.336;2023-04-06T14:33:38;12.20;;;7.00;;
20122;SDS011;10222;50.848;4.336;2023-04-06T14:36:05;8.17;;;5.50;;
20122;SDS011;10222;50.848;4.336;2023-04-06T14:38:32;11.70;;;5.97;;
20122;SDS011;10222;50.848;4.336;2023-04-06T14:40:59;10.93;;;6.60;;
20122;SDS011;10222;50.848;4.336;2023-04-06T14:43:27;11.67;;;6.43;;
20122;SDS011;10222;50.848;4.336;2023-04-06T14:45:54;9.40;;;5.53;;
20122;SDS011;10222;50.848;4.336;2023-04-06T14:48:20;10.97;;;6.17;;
20122;SDS011;10222;50.848;4.336;2023-04-06T14:50:53;10.60;;;5.33;;
20122;SDS011;10222;50.848;4.336;2023-04-06T14:53:22;9.23;;;5.37;;
20122;SDS011;10222;50.848;4.336;2023-04-06T14:55:49;12.77;;;6.70;;
20122;SDS011;10222;50.848;4.336;2023-04-06T14:58:25;9.90;;;5.87;;
20122;SDS011;10222;50.848;4.336;2023-04-06T15:00:55;10.43;;;5.87;;
20122;SDS011;10222;50.848;4.336;2023-04-06T15:03:22;10.13;;;6.90;;
20122;SDS011;10222;50.848;4.336;2023-04-06T15:05:50;12.67;;;6.03;;
20122;SDS011;10222;50.848;4.336;2023-04-06T15:08:16;12.57;;;6.97;;
20122;SDS011;10222;50.848;4.336;2023-04-06T15:10:45;11.73;;;7.03;;
20122;SDS011;10222;50.848;4.336;2023-04-06T15:13:11;11.93;;;6.63;;
20122;SDS011;10222;50.848;4.336;2023-04-06T15:15:37;14.37;;;6.70;;
20122;SDS011;10222;50.848;4.336;2023-04-06T15:18:03;12.33;;;7.30;;
20122;SDS011;10222;50.848;4.336;2023-04-06T15:20:33;10.67;;;6.93;;
20122;SDS011;10222;50.848;4.336;2023-04-06T15:23:02;12.37;;;6.77;;
20122;SDS011;10222;50.848;4.336;2023-04-06T15:25:30;10.23;;;5.53;;
20122;SDS011;10222;50.848;4.336;2023-04-06T15:27:56;13.40;;;7.23;;
20122;SDS011;10222;50.848;4.336;2023-04-06T15:30:23;13.10;;;7.03;;
20122;SDS011;10222;50.848;4.336;2023-04-06T15:32:53;13.37;;;6.67;;
20122;SDS011;10222;50.848;4.336;2023-04-06T15:37:52;13.13;;;7.13;;
20122;SDS011;10222;50.848;4.336;2023-04-06T15:40:19;11.60;;;6.13;;
20122;SDS011;10222;50.848;4.336;2023-04-06T15:42:47;11.67;;;7.17;;
20122;SDS011;10222;50.848;4.336;2023-04-06T15:45:19;12.13;;;6.50;;
20122;SDS011;10222;50.848;4.336;2023-04-06T15:47:46;10.67;;;5.87;;
20122;SDS011;10222;50.848;4.336;2023-04-06T15:50:12;12.47;;;6.23;;
20122;SDS011;10222;50.848;4.336;2023-04-06T15:52:39;12.20;;;6.37;;
20122;SDS011;10222;50.848;4.336;2023-04-06T15:55:11;13.13;;;6.80;;
20122;SDS011;10222;50.848;4.336;2023-04-06T15:57:37;12.07;;;7.17;;
20122;SDS011;10222;50.848;4.336;2023-04-06T16:02:35;15.27;;;6.80;;
20122;SDS011;10222;50.848;4.336;2023-04-06T16:07:30;12.80;;;6.73;;
20122;SDS011;10222;50.848;4.336;2023-04-06T16:09:57;13.63;;;7.23;;
20122;SDS011;10222;50.848;4.336;2023-04-06T16:12:25;14.63;;;6.77;;
20122;SDS011;10222;50.848;4.336;2023-04-06T16:14:51;15.47;;;7.20;;
20122;SDS011;10222;50.848;4.336;2023-04-06T16:17:18;14.07;;;6.60;;
20122;SDS011;10222;50.848;4.336;2023-04-06T16:19:50;10.87;;;6.60;;
20122;SDS011;10222;50.848;4.336;2023-04-06T16:22:17;12.77;;;7.07;;
20122;SDS011;10222;50.848;4.336;2023-04-06T16:24:46;14.53;;;6.77;;
20122;SDS011;10222;50.848;4.336;2023-04-06T16:27:13;11.80;;;6.43;;
20122;SDS011;10222;50.848;4.336;2023-04-06T16:29:42;12.10;;;6.80;;
20122;SDS011;10222;50.848;4.336;2023-04-06T16:32:08;11.70;;;6.70;;
20122;SDS011;10222;50.848;4.336;2023-04-06T16:34:38;14.77;;;7.77;;
20122;SDS011;10222;50.848;4.336;2023-04-06T16:37:06;16.17;;;7.03;;
20122;SDS011;10222;50.848;4.336;2023-04-06T16:39:32;13.97;;;7.43;;
20122;SDS011;10222;50.848;4.336;2023-04-06T16:41:58;11.93;;;7.27;;
20122;SDS011;10222;50.848;4.336;2023-04-06T16:44:24;10.53;;;6.33;;
20122;SDS011;10222;50.848;4.336;2023-04-06T16:46:52;10.23;;;6.40;;
20122;SDS011;10222;50.848;4.336;2023-04-06T16:49:21;12.60;;;6.47;;
20122;SDS011;10222;50.848;4.336;2023-04-06T16:51:48;15.33;;;6.43;;
20122;SDS011;10222;50.848;4.336;2023-04-06T16:54:14;9.27;;;5.20;;
20122;SDS011;10222;50.848;4.336;2023-04-06T16:56:43;8.77;;;5.40;;
20122;SDS011;10222;50.848;4.336;2023-04-06T17:01:39;9.97;;;4.93;;
20122;SDS011;10222;50.848;4.336;2023-04-06T17:04:06;7.47;;;3.53;;
20122;SDS011;10222;50.848;4.336;2023-04-06T17:06:35;7.03;;;3.83;;
20122;SDS011;10222;50.848;4.336;2023-04-06T17:09:02;9.50;;;3.33;;
20122;SDS011;10222;50.848;4.336;2023-04-06T17:11:31;5.70;;;3.13;;
20122;SDS011;10222;50.848;4.336;2023-04-06T17:13:57;5.63;;;3.07;;
20122;SDS011;10222;50.848;4.336;2023-04-06T17:16:24;11.47;;;3.60;;
20122;SDS011;10222;50.848;4.336;2023-04-06T17:18:50;6.70;;;2.57;;
20122;SDS011;10222;50.848;4.336;2023-04-06T17:21:18;7.97;;;3.07;;
20122;SDS011;10222;50.848;4.336;2023-04-06T17:23:45;10.10;;;4.03;;
20122;SDS011;10222;50.848;4.336;2023-04-06T17:26:14;12.17;;;3.60;;
20122;SDS011;10222;50.848;4.336;2023-04-06T17:28:41;11.60;;;4.77;;
20122;SDS011;10222;50.848;4.336;2023-04-06T17:31:09;12.50;;;4.90;;